sensor_id;sensor_type;location;lat;lon;timestamp;pressure;altitude;pressure_sealevel;temperature;humidity
40075;BME280;26529;51.530;11.754;2022-09-02T00:00:56;100669.97;;;18.61;42.83
40075;BME280;26529;51.530;11.754;2022-09-02T00:03:26;100666.38;;;18.62;42.86
40075;BME280;26529;51.530;11.754;2022-09-02T00:05:51;100668.41;;;18.56;42.77
40075;BME280;26529;51.530;11.754;2022-09-02T00:08:17;100671.19;;;18.55;42.97
40075;BME280;26529;51.530;11.754;2022-09-02T00:10:43;100667.72;;;18.53;42.86
40075;BME280;26529;51.530;11.754;2022-09-02T00:13:12;100666.09;;;18.50;42.92
40075;BME280;26529;51.530;11.754;2022-09-02T00:15:40;100668.84;;;18.49;42.97
40075;BME280;26529;51.530;11.754;2022-09-02T00:18:06;100669.63;;;18.51;43.02
40075;BME280;26529;51.530;11.754;2022-09-02T00:20:32;100674.16;;;18.49;42.99
40075;BME280;26529;51.530;11.754;2022-09-02T00:22:58;100665.59;;;18.43;43.19
40075;BME280;26529;51.530;11.754;2022-09-02T00:25:24;100670.91;;;18.43;43.17
40075;BME280;26529;51.530;11.754;2022-09-02T00:27:49;100663.34;;;18.36;42.80
40075;BME280;26529;51.530;11.754;2022-09-02T00:30:15;100667.81;;;18.35;43.22
40075;BME280;26529;51.530;11.754;2022-09-02T00:32:40;100666.94;;;18.35;42.65
40075;BME280;26529;51.530;11.754;2022-09-02T00:35:06;100674.06;;;18.34;42.87
40075;BME280;26529;51.530;11.754;2022-09-02T00:37:32;100664.63;;;18.28;42.93
40075;BME280;26529;51.530;11.754;2022-09-02T00:39:58;100652.38;;;18.26;43.14
40075;BME280;26529;51.530;11.754;2022-09-02T00:42:24;100660.31;;;18.26;42.93
40075;BME280;26529;51.530;11.754;2022-09-02T00:44:50;100663.94;;;18.25;43.14
40075;BME280;26529;51.530;11.754;2022-09-02T00:47:16;100661.44;;;18.22;42.90
40075;BME280;26529;51.530;11.754;2022-09-02T00:49:45;100655.53;;;18.16;42.80
40075;BME280;26529;51.530;11.754;2022-09-02T00:52:16;100656.53;;;18.14;42.79
40075;BME280;26529;51.530;11.754;2022-09-02T00:54:49;100657.41;;;18.14;43.16
40075;BME280;26529;51.530;11.754;2022-09-02T00:57:20;100664.50;;;18.14;43.12
40075;BME280;26529;51.530;11.754;2022-09-02T00:59:54;100661.16;;;18.10;43.02
40075;BME280;26529;51.530;11.754;2022-09-02T01:02:23;100664.06;;;18.06;43.27
40075;BME280;26529;51.530;11.754;2022-09-02T01:04:51;100652.72;;;18.02;43.23
40075;BME280;26529;51.530;11.754;2022-09-02T01:07:22;100647.56;;;17.99;43.23
40075;BME280;26529;51.530;11.754;2022-09-02T01:09:48;100647.56;;;17.99;43.36
40075;BME280;26529;51.530;11.754;2022-09-02T01:12:14;100646.72;;;17.98;43.29
40075;BME280;26529;51.530;11.754;2022-09-02T01:14:40;100647.88;;;17.93;43.30
40075;BME280;26529;51.530;11.754;2022-09-02T01:17:05;100644.31;;;17.94;43.28
40075;BME280;26529;51.530;11.754;2022-09-02T01:19:35;100647.03;;;17.92;43.08
40075;BME280;26529;51.530;11.754;2022-09-02T01:22:05;100644.63;;;17.87;43.10
40075;BME280;26529;51.530;11.754;2022-09-02T01:24:39;100644.06;;;17.81;43.10
40075;BME280;26529;51.530;11.754;2022-09-02T01:27:04;100637.00;;;17.81;42.84
40075;BME280;26529;51.530;11.754;2022-09-02T01:29:30;100647.75;;;17.78;42.82
40075;BME280;26529;51.530;11.754;2022-09-02T01:31:55;100635.50;;;17.75;43.10
40075;BME280;26529;51.530;11.754;2022-09-02T01:34:21;100633.78;;;17.74;43.14
40075;BME280;26529;51.530;11.754;2022-09-02T01:36:47;100634.66;;;17.75;43.05
40075;BME280;26529;51.530;11.754;2022-09-02T01:39:14;100630.59;;;17.68;43.19
40075;BME280;26529;51.530;11.754;2022-09-02T01:41:40;100635.66;;;17.72;42.73
40075;BME280;26529;51.530;11.754;2022-09-02T01:44:06;100637.69;;;17.67;42.95
40075;BME280;26529;51.530;11.754;2022-09-02T01:46:33;100637.00;;;17.63;43.13
40075;BME280;26529;51.530;11.754;2022-09-02T01:48:58;100633.72;;;17.58;43.23
40075;BME280;26529;51.530;11.754;2022-09-02T01:51:26;100635.28;;;17.62;43.13
40075;BME280;26529;51.530;11.754;2022-09-02T01:53:52;100630.28;;;17.56;43.22
40075;BME280;26529;51.530;11.754;2022-09-02T01:56:18;100627.72;;;17.55;43.29
40075;BME280;26529;51.530;11.754;2022-09-02T01:58:43;100631.31;;;17.54;43.54
40075;BME280;26529;51.530;11.754;2022-09-02T02:01:09;100631.47;;;17.51;43.11
40075;BME280;26529;51.530;11.754;2022-09-02T02:03:36;100627.31;;;17.45;42.97
40075;BME280;26529;51.530;11.754;2022-09-02T02:06:12;100626.72;;;17.40;43.43
40075;BME280;26529;51.530;11.754;2022-09-02T02:08:39;100622.13;;;17.43;43.34
40075;BME280;26529;51.530;11.754;2022-09-02T02:11:05;100619.69;;;17.39;43.44
40075;BME280;26529;51.530;11.754;2022-09-02T02:13:31;100613.78;;;17.33;43.16
40075;BME280;26529;51.530;11.754;2022-09-02T02:15:58;100616.31;;;17.35;43.46
40075;BME280;26529;51.530;11.754;2022-09-02T02:18:24;100613.06;;;17.30;43.30
40075;BME280;26529;51.530;11.754;2022-09-02T02:20:51;100615.03;;;17.26;43.33
40075;BME280;26529;51.530;11.754;2022-09-02T02:23:17;100618.50;;;17.27;43.67
40075;BME280;26529;51.530;11.754;2022-09-02T02:25:42;100612.38;;;17.26;43.57
40075;BME280;26529;51.530;11.754;2022-09-02T02:28:08;100617.81;;;17.23;43.73
40075;BME280;26529;51.530;11.754;2022-09-02T02:30:34;100623.19;;;17.21;43.49
40075;BME280;26529;51.530;11.754;2022-09-02T02:33:01;100614.63;;;17.16;43.55
40075;BME280;26529;51.530;11.754;2022-09-02T02:35:27;100612.69;;;17.20;43.44
40075;BME280;26529;51.530;11.754;2022-09-02T02:37:53;100616.41;;;17.16;43.64
40075;BME280;26529;51.530;11.754;2022-09-02T02:40:21;100607.69;;;17.14;43.69
40075;BME280;26529;51.530;11.754;2022-09-02T02:42:49;100604.22;;;17.12;43.63
40075;BME280;26529;51.530;11.754;2022-09-02T02:45:20;100610.47;;;17.11;43.29
40075;BME280;26529;51.530;11.754;2022-09-02T02:47:46;100607.97;;;17.07;43.58
40075;BME280;26529;51.530;11.754;2022-09-02T02:50:15;100609.84;;;17.05;43.79
40075;BME280;26529;51.530;11.754;2022-09-02T02:52:41;100601.09;;;17.03;43.95
40075;BME280;26529;51.530;11.754;2022-09-02T02:55:09;100604.69;;;17.02;43.45
40075;BME280;26529;51.530;11.754;2022-09-02T02:57:36;100599.59;;;16.98;44.05
40075;BME280;26529;51.530;11.754;2022-09-02T03:00:15;100607.38;;;17.01;43.97
40075;BME280;26529;51.530;11.754;2022-09-02T03:02:40;100605.91;;;16.95;43.75
40075;BME280;26529;51.530;11.754;2022-09-02T03:05:07;100606.84;;;16.94;43.99
40075;BME280;26529;51.530;11.754;2022-09-02T03:07:33;100603.38;;;16.92;43.88
40075;BME280;26529;51.530;11.754;2022-09-02T03:10:00;100600.13;;;16.87;43.85
40075;BME280;26529;51.530;11.754;2022-09-02T03:12:29;100593.91;;;16.88;43.89
40075;BME280;26529;51.530;11.754;2022-09-02T03:14:57;100595.78;;;16.86;43.84
40075;BME280;26529;51.530;11.754;2022-09-02T03:17:24;100601.19;;;16.82;43.79
40075;BME280;26529;51.530;11.754;2022-09-02T03:19:50;100600.25;;;16.84;43.85
40075;BME280;26529;51.530;11.754;2022-09-02T03:22:16;100596.97;;;16.78;44.06
40075;BME280;26529;51.530;11.754;2022-09-02T03:24:41;100591.91;;;16.74;44.13
40075;BME280;26529;51.530;11.754;2022-09-02T03:27:07;100591.84;;;16.75;43.86
40075;BME280;26529;51.530;11.754;2022-09-02T03:29:33;100591.91;;;16.74;44.05
40075;BME280;26529;51.530;11.754;2022-09-02T03:31:59;100590.25;;;16.71;44.13
40075;BME280;26529;51.530;11.754;2022-09-02T03:34:26;100586.84;;;16.69;44.17
40075;BME280;26529;51.530;11.754;2022-09-02T03:36:52;100588.84;;;16.64;43.77
40075;BME280;26529;51.530;11.754;2022-09-02T03:39:17;100588.84;;;16.64;43.90
40075;BME280;26529;51.530;11.754;2022-09-02T03:41:46;100589.94;;;16.60;44.21
40075;BME280;26529;51.530;11.754;2022-09-02T03:44:13;100591.66;;;16.61;44.21
40075;BME280;26529;51.530;11.754;2022-09-02T03:46:40;100582.91;;;16.59;44.13
40075;BME280;26529;51.530;11.754;2022-09-02T03:49:06;100582.13;;;16.57;43.78
40075;BME280;26529;51.530;11.754;2022-09-02T03:51:31;100585.72;;;16.55;44.17
40075;BME280;26529;51.530;11.754;2022-09-02T03:53:57;100587.59;;;16.53;43.96
40075;BME280;26529;51.530;11.754;2022-09-02T03:56:24;100589.59;;;16.48;44.07
40075;BME280;26529;51.530;11.754;2022-09-02T03:58:50;100590.34;;;16.50;43.92
40075;BME280;26529;51.530;11.754;2022-09-02T04:01:23;100586.22;;;16.45;44.04
40075;BME280;26529;51.530;11.754;2022-09-02T04:03:52;100587.94;;;16.46;43.90
40075;BME280;26529;51.530;11.754;2022-09-02T04:06:20;100581.00;;;16.43;43.90
40075;BME280;26529;51.530;11.754;2022-09-02T04:08:47;100595.16;;;16.42;44.09
40075;BME280;26529;51.530;11.754;2022-09-02T04:11:16;100591.81;;;16.38;44.19
40075;BME280;26529;51.530;11.754;2022-09-02T04:13:44;100588.16;;;16.41;43.92
40075;BME280;26529;51.530;11.754;2022-09-02T04:16:16;100594.50;;;16.37;44.07
40075;BME280;26529;51.530;11.754;2022-09-02T04:18:43;100597.44;;;16.31;44.30
40075;BME280;26529;51.530;11.754;2022-09-02T04:21:10;100594.72;;;16.32;44.12
40075;BME280;26529;51.530;11.754;2022-09-02T04:23:37;100594.00;;;16.28;44.20
40075;BME280;26529;51.530;11.754;2022-09-02T04:26:09;100594.88;;;16.29;44.14
40075;BME280;26529;51.530;11.754;2022-09-02T04:28:35;100597.72;;;16.24;44.63
40075;BME280;26529;51.530;11.754;2022-09-02T04:31:07;100593.25;;;16.26;44.20
40075;BME280;26529;51.530;11.754;2022-09-02T04:33:35;100593.47;;;16.22;44.20
40075;BME280;26529;51.530;11.754;2022-09-02T04:36:06;100590.88;;;16.20;44.53
40075;BME280;26529;51.530;11.754;2022-09-02T04:38:33;100591.66;;;16.22;44.38
40075;BME280;26529;51.530;11.754;2022-09-02T04:40:58;100599.75;;;16.19;44.51
40075;BME280;26529;51.530;11.754;2022-09-02T04:43:25;100592.81;;;16.17;44.57
40075;BME280;26529;51.530;11.754;2022-09-02T04:45:51;100592.88;;;16.15;44.36
40075;BME280;26529;51.530;11.754;2022-09-02T04:48:18;100594.63;;;16.14;44.56
40075;BME280;26529;51.530;11.754;2022-09-02T04:50:45;100589.44;;;16.13;44.43
40075;BME280;26529;51.530;11.754;2022-09-02T04:53:12;100594.72;;;16.13;44.51
40075;BME280;26529;51.530;11.754;2022-09-02T04:55:41;100595.72;;;16.10;44.50
40075;BME280;26529;51.530;11.754;2022-09-02T04:58:09;100595.78;;;16.09;44.62
40075;BME280;26529;51.530;11.754;2022-09-02T05:00:37;100596.72;;;16.08;44.69
40075;BME280;26529;51.530;11.754;2022-09-02T05:03:04;100592.31;;;16.08;44.53
40075;BME280;26529;51.530;11.754;2022-09-02T05:05:32;100599.50;;;16.05;44.55
40075;BME280;26529;51.530;11.754;2022-09-02T05:07:58;100598.72;;;16.03;44.55
40075;BME280;26529;51.530;11.754;2022-09-02T05:10:25;100604.16;;;15.99;44.48
40075;BME280;26529;51.530;11.754;2022-09-02T05:12:50;100599.91;;;15.95;44.71
40075;BME280;26529;51.530;11.754;2022-09-02T05:15:17;100593.84;;;15.93;44.79
40075;BME280;26529;51.530;11.754;2022-09-02T05:17:43;100594.69;;;15.94;44.55
40075;BME280;26529;51.530;11.754;2022-09-02T05:20:10;100588.56;;;15.93;44.71
40075;BME280;26529;51.530;11.754;2022-09-02T05:22:37;100588.66;;;15.90;44.69
40075;BME280;26529;51.530;11.754;2022-09-02T05:25:05;100590.66;;;15.85;44.86
40075;BME280;26529;51.530;11.754;2022-09-02T05:27:33;100599.50;;;15.84;44.78
40075;BME280;26529;51.530;11.754;2022-09-02T05:29:58;100597.00;;;15.81;44.97
40075;BME280;26529;51.530;11.754;2022-09-02T05:32:25;100599.66;;;15.81;45.04
40075;BME280;26529;51.530;11.754;2022-09-02T05:34:53;100601.50;;;15.79;44.90
40075;BME280;26529;51.530;11.754;2022-09-02T05:37:19;100598.00;;;15.78;45.19
40075;BME280;26529;51.530;11.754;2022-09-02T05:39:45;100598.91;;;15.77;45.16
40075;BME280;26529;51.530;11.754;2022-09-02T05:42:10;100591.84;;;15.78;45.09
40075;BME280;26529;51.530;11.754;2022-09-02T05:44:37;100585.75;;;15.76;45.34
40075;BME280;26529;51.530;11.754;2022-09-02T05:47:04;100598.06;;;15.77;45.39
40075;BME280;26529;51.530;11.754;2022-09-02T05:49:30;100593.69;;;15.76;45.20
40075;BME280;26529;51.530;11.754;2022-09-02T05:52:02;100596.34;;;15.76;45.23
40075;BME280;26529;51.530;11.754;2022-09-02T05:54:38;100593.63;;;15.77;45.12
40075;BME280;26529;51.530;11.754;2022-09-02T05:57:09;100596.34;;;15.76;45.37
40075;BME280;26529;51.530;11.754;2022-09-02T05:59:39;100599.03;;;15.74;45.49
40075;BME280;26529;51.530;11.754;2022-09-02T06:02:08;100591.97;;;15.74;45.44
40075;BME280;26529;51.530;11.754;2022-09-02T06:04:44;100590.31;;;15.72;45.53
40075;BME280;26529;51.530;11.754;2022-09-02T06:07:13;100591.97;;;15.74;45.78
40075;BME280;26529;51.530;11.754;2022-09-02T06:09:39;100589.34;;;15.74;45.58
40075;BME280;26529;51.530;11.754;2022-09-02T06:12:06;100592.19;;;15.70;45.72
40075;BME280;26529;51.530;11.754;2022-09-02T06:14:33;100594.63;;;15.74;45.39
40075;BME280;26529;51.530;11.754;2022-09-02T06:17:00;100594.63;;;15.74;45.83
40075;BME280;26529;51.530;11.754;2022-09-02T06:19:33;100594.63;;;15.74;45.88
40075;BME280;26529;51.530;11.754;2022-09-02T06:22:02;100587.56;;;15.75;45.69
40075;BME280;26529;51.530;11.754;2022-09-02T06:24:29;100594.56;;;15.76;45.82
40075;BME280;26529;51.530;11.754;2022-09-02T06:26:54;100587.47;;;15.77;45.84
40075;BME280;26529;51.530;11.754;2022-09-02T06:29:21;100596.50;;;15.72;46.12
40075;BME280;26529;51.530;11.754;2022-09-02T06:31:48;100599.91;;;15.74;45.83
40075;BME280;26529;51.530;11.754;2022-09-02T06:34:18;100601.50;;;15.79;45.86
40075;BME280;26529;51.530;11.754;2022-09-02T06:36:45;100597.00;;;15.81;45.85
40075;BME280;26529;51.530;11.754;2022-09-02T06:39:14;100599.75;;;15.78;46.04
40075;BME280;26529;51.530;11.754;2022-09-02T06:41:43;100595.19;;;15.81;45.90
40075;BME280;26529;51.530;11.754;2022-09-02T06:44:12;100590.78;;;15.82;46.03
40075;BME280;26529;51.530;11.754;2022-09-02T06:46:44;100595.19;;;15.81;45.95
40075;BME280;26529;51.530;11.754;2022-09-02T06:49:13;100600.44;;;15.83;46.39
40075;BME280;26529;51.530;11.754;2022-09-02T06:51:44;100594.09;;;15.87;46.20
40075;BME280;26529;51.530;11.754;2022-09-02T06:54:13;100602.06;;;15.85;46.24
40075;BME280;26529;51.530;11.754;2022-09-02T06:56:41;100601.72;;;15.95;46.21
40075;BME280;26529;51.530;11.754;2022-09-02T06:59:07;100595.56;;;15.94;46.02
40075;BME280;26529;51.530;11.754;2022-09-02T07:01:41;100594.81;;;15.91;46.27
40075;BME280;26529;51.530;11.754;2022-09-02T07:04:07;100594.78;;;15.92;46.26
40075;BME280;26529;51.530;11.754;2022-09-02T07:06:53;100592.13;;;15.92;46.67
40075;BME280;26529;51.530;11.754;2022-09-02T07:09:23;100591.25;;;15.92;46.58
40075;BME280;26529;51.530;11.754;2022-09-02T07:11:58;100591.13;;;15.95;46.55
40075;BME280;26529;51.530;11.754;2022-09-02T07:14:24;100588.50;;;15.95;46.96
40075;BME280;26529;51.530;11.754;2022-09-02T07:16:54;100588.41;;;15.96;46.99
40075;BME280;26529;51.530;11.754;2022-09-02T07:19:25;100596.22;;;15.99;46.75
40075;BME280;26529;51.530;11.754;2022-09-02T07:21:52;100587.28;;;16.02;46.96
40075;BME280;26529;51.530;11.754;2022-09-02T07:24:21;100593.41;;;16.03;46.80
40075;BME280;26529;51.530;11.754;2022-09-02T07:26:48;100593.16;;;16.09;46.77
40075;BME280;26529;51.530;11.754;2022-09-02T07:29:16;100592.22;;;16.10;46.87
40075;BME280;26529;51.530;11.754;2022-09-02T07:31:45;100588.28;;;16.19;46.68
40075;BME280;26529;51.530;11.754;2022-09-02T07:34:12;100600.03;;;16.13;46.74
40075;BME280;26529;51.530;11.754;2022-09-02T07:36:39;100594.56;;;16.16;46.88
40075;BME280;26529;51.530;11.754;2022-09-02T07:39:08;100592.59;;;16.21;46.76
40075;BME280;26529;51.530;11.754;2022-09-02T07:41:35;100596.16;;;16.20;47.08
40075;BME280;26529;51.530;11.754;2022-09-02T07:44:02;100593.31;;;16.25;46.86
40075;BME280;26529;51.530;11.754;2022-09-02T07:46:28;100591.31;;;16.30;46.81
40075;BME280;26529;51.530;11.754;2022-09-02T07:48:58;100591.88;;;16.37;47.08
40075;BME280;26529;51.530;11.754;2022-09-02T07:51:24;100593.56;;;16.38;46.73
40075;BME280;26529;51.530;11.754;2022-09-02T07:53:51;100591.56;;;16.43;46.84
40075;BME280;26529;51.530;11.754;2022-09-02T07:56:16;100588.00;;;16.44;46.94
40075;BME280;26529;51.530;11.754;2022-09-02T07:58:44;100589.22;;;16.37;46.99
40075;BME280;26529;51.530;11.754;2022-09-02T08:01:12;100584.41;;;16.45;46.76
40075;BME280;26529;51.530;11.754;2022-09-02T08:03:40;100591.44;;;16.46;47.13
40075;BME280;26529;51.530;11.754;2022-09-02T08:06:08;100587.66;;;16.52;46.90
40075;BME280;26529;51.530;11.754;2022-09-02T08:08:33;100587.59;;;16.53;46.91
40075;BME280;26529;51.530;11.754;2022-09-02T08:10:59;100591.94;;;16.54;46.97
40075;BME280;26529;51.530;11.754;2022-09-02T08:13:25;100590.22;;;16.53;47.21
40075;BME280;26529;51.530;11.754;2022-09-02T08:15:50;100582.13;;;16.57;47.25
40075;BME280;26529;51.530;11.754;2022-09-02T08:18:17;100589.78;;;16.63;47.05
40075;BME280;26529;51.530;11.754;2022-09-02T08:20:42;100591.41;;;16.65;47.02
40075;BME280;26529;51.530;11.754;2022-09-02T08:23:08;100590.91;;;16.76;47.03
40075;BME280;26529;51.530;11.754;2022-09-02T08:25:34;100599.56;;;16.80;47.08
40075;BME280;26529;51.530;11.754;2022-09-02T08:27:59;100592.91;;;16.71;47.21
40075;BME280;26529;51.530;11.754;2022-09-02T08:30:25;100588.25;;;16.76;47.35
40075;BME280;26529;51.530;11.754;2022-09-02T08:32:50;100594.03;;;16.85;46.99
40075;BME280;26529;51.530;11.754;2022-09-02T08:35:16;100591.88;;;16.93;47.10
40075;BME280;26529;51.530;11.754;2022-09-02T08:37:41;100589.25;;;16.93;47.07
40075;BME280;26529;51.530;11.754;2022-09-02T08:40:15;100595.94;;;17.00;47.20
40075;BME280;26529;51.530;11.754;2022-09-02T08:42:46;100588.94;;;16.99;46.95
40075;BME280;26529;51.530;11.754;2022-09-02T08:45:32;100588.81;;;17.02;47.23
40075;BME280;26529;51.530;11.754;2022-09-02T08:50:57;100578.03;;;17.05;47.58
40075;BME280;26529;51.530;11.754;2022-09-02T08:53:56;100583.13;;;17.10;47.63
40075;BME280;26529;51.530;11.754;2022-09-02T08:56:24;100574.63;;;17.21;47.48
40075;BME280;26529;51.530;11.754;2022-09-02T08:58:53;100564.66;;;17.26;47.47
40075;BME280;26529;51.530;11.754;2022-09-02T09:01:33;100568.94;;;17.29;47.33
40075;BME280;26529;51.530;11.754;2022-09-02T09:04:31;100560.84;;;17.32;47.55
40075;BME280;26529;51.530;11.754;2022-09-02T09:07:12;100572.06;;;17.37;47.69
40075;BME280;26529;51.530;11.754;2022-09-02T09:15:21;100559.72;;;17.54;47.64
40075;BME280;26529;51.530;11.754;2022-09-02T09:17:57;100548.53;;;17.65;47.38
40075;BME280;26529;51.530;11.754;2022-09-02T09:20:25;100552.69;;;17.70;47.77
40075;BME280;26529;51.530;11.754;2022-09-02T09:22:56;100540.19;;;17.72;47.65
40075;BME280;26529;51.530;11.754;2022-09-02T09:25:22;100540.00;;;17.75;47.63
40075;BME280;26529;51.530;11.754;2022-09-02T09:27:57;100538.84;;;17.81;47.74
40075;BME280;26529;51.530;11.754;2022-09-02T09:30:23;100536.00;;;17.84;47.60
40075;BME280;26529;51.530;11.754;2022-09-02T09:32:54;100536.44;;;17.93;47.60
40075;BME280;26529;51.530;11.754;2022-09-02T09:35:22;100535.34;;;17.97;47.72
40075;BME280;26529;51.530;11.754;2022-09-02T09:37:49;100536.13;;;17.99;47.66
40075;BME280;26529;51.530;11.754;2022-09-02T09:42:54;100519.22;;;18.17;47.53
40075;BME280;26529;51.530;11.754;2022-09-02T09:48:16;100513.75;;;18.21;47.53
40075;BME280;26529;51.530;11.754;2022-09-02T09:50:44;100520.09;;;18.34;47.33
40075;BME280;26529;51.530;11.754;2022-09-02T09:53:20;100517.06;;;18.40;47.30
40075;BME280;26529;51.530;11.754;2022-09-02T09:58:17;100519.56;;;18.43;47.00
40075;BME280;26529;51.530;11.754;2022-09-02T10:00:43;100510.13;;;18.54;46.89
40075;BME280;26529;51.530;11.754;2022-09-02T10:03:20;100506.34;;;18.58;47.01
40075;BME280;26529;51.530;11.754;2022-09-02T10:05:46;100514.72;;;18.66;46.96
40075;BME280;26529;51.530;11.754;2022-09-02T10:10:54;100514.38;;;18.73;46.87
40075;BME280;26529;51.530;11.754;2022-09-02T10:13:27;100516.50;;;18.82;46.70
40075;BME280;26529;51.530;11.754;2022-09-02T10:18:37;100516.72;;;18.93;46.41
40075;BME280;26529;51.530;11.754;2022-09-02T10:26:56;100503.53;;;19.08;45.87
40075;BME280;26529;51.530;11.754;2022-09-02T10:29:50;100504.44;;;19.07;46.17
40075;BME280;26529;51.530;11.754;2022-09-02T10:35:13;100486.81;;;19.20;45.78
40075;BME280;26529;51.530;11.754;2022-09-02T10:38:38;100494.69;;;19.22;46.05
40075;BME280;26529;51.530;11.754;2022-09-02T10:40:49;100491.59;;;19.30;45.67
40075;BME280;26529;51.530;11.754;2022-09-02T10:43:43;100488.94;;;19.44;45.43
40075;BME280;26529;51.530;11.754;2022-09-02T10:46:17;100486.84;;;19.35;45.71
40075;BME280;26529;51.530;11.754;2022-09-02T10:49:06;100492.72;;;19.40;45.54
40075;BME280;26529;51.530;11.754;2022-09-02T10:51:51;100493.00;;;19.50;45.49
40075;BME280;26529;51.530;11.754;2022-09-02T10:57:05;100486.47;;;19.56;45.22
40075;BME280;26529;51.530;11.754;2022-09-02T10:59:42;100486.75;;;19.65;45.18
40075;BME280;26529;51.530;11.754;2022-09-02T11:02:20;100482.78;;;19.58;45.61
40075;BME280;26529;51.530;11.754;2022-09-02T11:04:58;100482.19;;;19.68;45.52
40075;BME280;26529;51.530;11.754;2022-09-02T11:07:46;100472.00;;;19.74;45.65
40075;BME280;26529;51.530;11.754;2022-09-02T11:10:19;100481.41;;;19.80;45.31
40075;BME280;26529;51.530;11.754;2022-09-02T11:12:56;100468.13;;;19.80;45.16
40075;BME280;26529;51.530;11.754;2022-09-02T11:23:47;100468.78;;;19.84;44.79
40075;BME280;26529;51.530;11.754;2022-09-02T11:26:20;100458.41;;;19.93;44.77
40075;BME280;26529;51.530;11.754;2022-09-02T11:29:04;100462.84;;;19.93;44.70
40075;BME280;26529;51.530;11.754;2022-09-02T11:31:46;100453.91;;;19.94;44.69
40075;BME280;26529;51.530;11.754;2022-09-02T11:36:40;100444.81;;;19.98;44.21
40075;BME280;26529;51.530;11.754;2022-09-02T11:39:14;100453.25;;;20.05;44.28
40075;BME280;26529;51.530;11.754;2022-09-02T11:56:01;100434.69;;;20.18;44.43
40075;BME280;26529;51.530;11.754;2022-09-02T11:58:30;100423.25;;;20.30;44.37
40075;BME280;26529;51.530;11.754;2022-09-02T12:03:28;100429.88;;;20.38;44.13
40075;BME280;26529;51.530;11.754;2022-09-02T12:06:12;100431.56;;;20.39;43.83
40075;BME280;26529;51.530;11.754;2022-09-02T12:11:09;100428.50;;;20.45;43.23
40075;BME280;26529;51.530;11.754;2022-09-02T12:13:54;100421.25;;;20.47;43.07
40075;BME280;26529;51.530;11.754;2022-09-02T12:21:22;100422.22;;;20.59;42.81
40075;BME280;26529;51.530;11.754;2022-09-02T12:26:16;100429.94;;;20.64;42.54
40075;BME280;26529;51.530;11.754;2022-09-02T12:28:42;100421.94;;;20.64;42.78
40075;BME280;26529;51.530;11.754;2022-09-02T12:33:47;100408.72;;;20.75;42.41
40075;BME280;26529;51.530;11.754;2022-09-02T12:36:44;100406.47;;;20.69;42.59
40075;BME280;26529;51.530;11.754;2022-09-02T12:41:55;100409.06;;;20.83;41.97
40075;BME280;26529;51.530;11.754;2022-09-02T12:44:31;100402.00;;;20.82;41.79
40075;BME280;26529;51.530;11.754;2022-09-02T12:55:18;100375.50;;;20.94;41.82
40075;BME280;26529;51.530;11.754;2022-09-02T12:57:47;100376.88;;;20.99;41.82
40075;BME280;26529;51.530;11.754;2022-09-02T13:00:24;100373.56;;;20.96;41.54
40075;BME280;26529;51.530;11.754;2022-09-02T13:03:12;100373.56;;;20.96;41.58
40075;BME280;26529;51.530;11.754;2022-09-02T13:06:00;100375.81;;;21.02;41.48
40075;BME280;26529;51.530;11.754;2022-09-02T13:11:29;100365.69;;;21.07;41.28
40075;BME280;26529;51.530;11.754;2022-09-02T13:14:33;100363.75;;;21.09;41.63
40075;BME280;26529;51.530;11.754;2022-09-02T13:19:59;100360.78;;;21.14;41.24
40075;BME280;26529;51.530;11.754;2022-09-02T13:25:27;100357.47;;;21.23;41.13
40075;BME280;26529;51.530;11.754;2022-09-02T13:33:27;100355.09;;;21.32;40.38
40075;BME280;26529;51.530;11.754;2022-09-02T13:35:54;100361.59;;;21.40;40.48
40075;BME280;26529;51.530;11.754;2022-09-02T13:38:23;100357.22;;;21.39;40.38
40075;BME280;26529;51.530;11.754;2022-09-02T13:40:50;100350.28;;;21.37;40.30
40075;BME280;26529;51.530;11.754;2022-09-02T13:43:19;100345.28;;;21.32;40.06
40075;BME280;26529;51.530;11.754;2022-09-02T13:45:46;100348.69;;;21.34;39.83
40075;BME280;26529;51.530;11.754;2022-09-02T13:48:29;100349.13;;;21.41;39.11
40075;BME280;26529;51.530;11.754;2022-09-02T13:50:56;100350.06;;;21.40;38.46
40075;BME280;26529;51.530;11.754;2022-09-02T13:53:42;100354.97;;;21.33;39.02
40075;BME280;26529;51.530;11.754;2022-09-02T13:56:12;100345.56;;;21.40;39.85
40075;BME280;26529;51.530;11.754;2022-09-02T13:58:50;100330.31;;;21.42;40.22
40075;BME280;26529;51.530;11.754;2022-09-02T14:03:54;100339.69;;;21.48;39.94
40075;BME280;26529;51.530;11.754;2022-09-02T14:06:23;100336.75;;;21.40;38.66
40075;BME280;26529;51.530;11.754;2022-09-02T14:08:51;100335.19;;;21.49;38.78
40075;BME280;26529;51.530;11.754;2022-09-02T14:11:18;100331.41;;;21.40;38.80
40075;BME280;26529;51.530;11.754;2022-09-02T14:13:47;100332.59;;;21.60;39.14
40075;BME280;26529;51.530;11.754;2022-09-02T14:16:34;100337.88;;;21.49;38.72
40075;BME280;26529;51.530;11.754;2022-09-02T14:19:06;100334.56;;;21.45;39.69
40075;BME280;26529;51.530;11.754;2022-09-02T14:21:34;100331.88;;;21.58;38.71
40075;BME280;26529;51.530;11.754;2022-09-02T14:24:00;100326.88;;;21.53;39.04
40075;BME280;26529;51.530;11.754;2022-09-02T14:26:34;100323.44;;;21.64;39.40
40075;BME280;26529;51.530;11.754;2022-09-02T14:29:01;100327.78;;;21.65;38.87
40075;BME280;26529;51.530;11.754;2022-09-02T14:31:28;100313.16;;;21.71;38.43
40075;BME280;26529;51.530;11.754;2022-09-02T14:33:56;100315.72;;;21.73;38.62